Hovedside
METAR-TAF:

METAR-TAF

Lufthavner :

Florø, Norge

Florø lufthavn

breddegrad: 61-35N, lengdegrad: 005-02E, høyde over havet: 0 m

Gjeldene værobservasjon

Denne rapporten ble laget for 42 minutter siden, klokken 21:50 UTC
Vind 4 kt fra Vest-sørvest
Temperatur 15°C
Luftfuktighet 94%
Trykk 1015 hPa
Sikt 10 km eller mer

METAR: ENFL 242150Z AUTO 25004KT 9999NDV OVC028/// 15/14 Q1015

Tid: 00:32 (22:32 UTC)

Varsel

Denne rapporten ble laget for 8 timer og 32 minutter siden, klokken 14:00 UTC
Varsel gyldig fra 24. klokken 15 UTC til 24. klokken 20 UTC
Vind 7 kt fra Sørvest
Sikt 10 km eller mer
Få skyer i en høyde av 700 ft
Spredte skyer i en høyde av 2000 ft
Sannsynlighet 40% :
Midlertidig
fra 24. klokken 15 UTC til 24. klokken 20 UTC
Brutte skyer i en høyde av 700 ft

TAF: ENFL 241400Z 2415/2420 23007KT 9999 FEW007 SCT020 PROB40 TEMPO 2415/2420 BKN007

Værobservasjoner og værvarsel for over 4000 flyplasser (METAR- og TAF-rapporter).

Tilgjengelige stasjoner er representert av de røde og gule prikkene på kartet.

Hold musepekeren over prikken for å se navnet på stasjonen.

Klikk så for å se værobservasjoner og -varsler.

For å forandre kartet kan du klikke på den grønne knappen med svart kryss for å zoome inn, på den grønne knappen med strek for å zoome ut, eller på de grønne pilene for å se tilstøtende kart.


METAR-TAF: